createdAt,value
2019-03-08T00:01:10.364Z,2.87
2019-03-08T00:03:41.611Z,2.73
2019-03-08T00:06:12.970Z,2.40
2019-03-08T00:08:43.817Z,2.43
2019-03-08T00:11:15.364Z,2.00
2019-03-08T00:13:46.220Z,2.13
2019-03-08T00:16:17.015Z,2.20
2019-03-08T00:18:47.835Z,2.27
2019-03-08T00:21:19.171Z,2.43
2019-03-08T00:23:51.804Z,2.07
2019-03-08T00:26:22.677Z,1.50
2019-03-08T00:28:59.373Z,1.80
2019-03-08T00:31:31.515Z,2.00
2019-03-08T00:34:02.422Z,1.63
2019-03-08T00:36:33.144Z,1.13
2019-03-08T00:39:05.040Z,1.63
2019-03-08T00:41:36.990Z,1.30
2019-03-08T00:44:07.704Z,2.50
2019-03-08T00:46:38.463Z,2.27
2019-03-08T00:49:19.680Z,2.10
2019-03-08T00:51:53.672Z,2.20
2019-03-08T00:54:27.778Z,2.33
2019-03-08T00:56:58.522Z,1.83
2019-03-08T00:59:29.080Z,1.87
2019-03-08T01:02:01.642Z,2.10
2019-03-08T01:04:35.694Z,1.77
2019-03-08T01:07:07.760Z,1.97
2019-03-08T01:09:38.516Z,2.57
2019-03-08T01:12:09.288Z,1.73
2019-03-08T01:14:43.044Z,2.43
2019-03-08T01:17:13.896Z,2.43
2019-03-08T01:19:46.783Z,1.97
2019-03-08T01:22:17.447Z,1.87
2019-03-08T01:25:01.003Z,2.20
2019-03-08T01:27:35.020Z,2.27
2019-03-08T01:30:08.738Z,2.00
2019-03-08T01:32:39.535Z,2.37
2019-03-08T01:35:10.254Z,1.77
2019-03-08T01:37:40.979Z,2.03
2019-03-08T01:40:11.882Z,2.23
2019-03-08T01:42:52.913Z,2.37
2019-03-08T01:45:30.265Z,2.20
2019-03-08T01:48:01.065Z,2.10
2019-03-08T01:50:34.174Z,2.57
2019-03-08T01:53:13.030Z,2.10
2019-03-08T01:55:43.892Z,1.87
2019-03-08T01:58:14.695Z,2.10
2019-03-08T02:00:45.711Z,2.67
2019-03-08T02:03:17.243Z,2.37
2019-03-08T02:05:51.677Z,2.07
2019-03-08T02:08:22.907Z,2.50
2019-03-08T02:10:54.830Z,2.20
2019-03-08T02:13:26.513Z,2.80
2019-03-08T02:15:57.116Z,2.37
2019-03-08T02:18:27.865Z,2.70
2019-03-08T02:21:16.598Z,2.77
2019-03-08T02:23:47.321Z,3.17
2019-03-08T02:26:18.070Z,3.00
2019-03-08T02:28:48.903Z,2.57
2019-03-08T02:31:19.854Z,2.40
2019-03-08T02:33:50.581Z,2.70
2019-03-08T02:36:40.986Z,2.70
2019-03-08T02:39:14.112Z,3.60
2019-03-08T02:41:44.946Z,3.17
2019-03-08T02:44:15.607Z,2.80
2019-03-08T02:46:46.317Z,3.40
2019-03-08T02:49:16.952Z,3.23
2019-03-08T02:51:48.117Z,3.30
2019-03-08T02:54:18.871Z,2.80
2019-03-08T02:56:49.700Z,3.00
2019-03-08T02:59:20.526Z,2.80
2019-03-08T03:01:51.202Z,2.40
2019-03-08T03:04:23.114Z,2.50
2019-03-08T03:06:53.764Z,2.13
2019-03-08T03:09:24.766Z,2.40
2019-03-08T03:12:01.846Z,2.37
2019-03-08T03:14:32.743Z,2.23
2019-03-08T03:17:10.818Z,2.43
2019-03-08T03:19:41.724Z,2.70
2019-03-08T03:22:12.394Z,2.30
2019-03-08T03:24:43.134Z,2.67
2019-03-08T03:27:13.859Z,2.40
2019-03-08T03:29:44.656Z,2.60
2019-03-08T03:32:26.713Z,2.80
2019-03-08T03:34:57.561Z,3.30
2019-03-08T03:37:28.361Z,2.80
2019-03-08T03:40:12.961Z,3.57
2019-03-08T03:42:43.844Z,3.27
2019-03-08T03:45:17.982Z,3.70
2019-03-08T03:47:49.707Z,3.80
2019-03-08T03:50:20.619Z,3.20
2019-03-08T03:52:51.510Z,3.57
2019-03-08T03:55:22.350Z,3.47
2019-03-08T03:57:58.378Z,3.50
2019-03-08T04:00:29.188Z,3.50
2019-03-08T04:03:00.157Z,4.27
2019-03-08T04:05:30.927Z,3.30
2019-03-08T04:08:01.461Z,3.30
2019-03-08T04:10:39.790Z,3.20
2019-03-08T04:13:10.637Z,4.13
2019-03-08T04:15:41.306Z,3.60
2019-03-08T04:18:11.888Z,3.17
2019-03-08T04:20:45.902Z,3.53
2019-03-08T04:23:22.233Z,3.47
2019-03-08T04:25:52.998Z,3.30
2019-03-08T04:28:29.715Z,3.77
2019-03-08T04:31:15.772Z,3.50
2019-03-08T04:33:46.750Z,3.60
2019-03-08T04:36:17.673Z,3.97
2019-03-08T04:39:07.918Z,3.73
2019-03-08T04:41:38.627Z,4.03
2019-03-08T04:44:09.618Z,3.77
2019-03-08T04:46:43.840Z,3.37
2019-03-08T04:49:29.842Z,4.10
2019-03-08T04:52:04.781Z,4.13
2019-03-08T04:54:50.489Z,3.93
2019-03-08T04:57:29.283Z,3.87
2019-03-08T05:00:37.334Z,4.20
2019-03-08T05:03:08.169Z,4.20
2019-03-08T05:05:38.896Z,4.20
2019-03-08T05:08:14.304Z,3.97
2019-03-08T05:10:45.021Z,4.40
2019-03-08T05:13:17.900Z,4.60
2019-03-08T05:15:49.741Z,4.13
2019-03-08T05:18:33.797Z,4.07
2019-03-08T05:21:04.552Z,4.60
2019-03-08T05:23:35.354Z,4.63
2019-03-08T05:26:06.218Z,4.27
2019-03-08T05:28:42.530Z,4.20
2019-03-08T05:31:13.151Z,4.27
2019-03-08T05:33:43.879Z,4.30
2019-03-08T05:36:14.671Z,4.33
2019-03-08T05:38:45.427Z,4.43
2019-03-08T05:41:29.427Z,4.27
2019-03-08T05:44:00.155Z,4.53
2019-03-08T05:46:32.963Z,4.87
2019-03-08T05:49:03.754Z,5.07
2019-03-08T05:51:41.076Z,5.07
2019-03-08T05:54:23.331Z,5.43
2019-03-08T05:57:05.333Z,4.23
2019-03-08T05:59:42.430Z,5.00
2019-03-08T06:02:18.680Z,5.13
2019-03-08T06:04:57.024Z,4.80
2019-03-08T06:07:33.679Z,4.60
2019-03-08T06:10:04.938Z,5.00
2019-03-08T06:12:42.889Z,5.03
2019-03-08T06:15:17.775Z,5.30
2019-03-08T06:17:48.544Z,4.43
2019-03-08T06:20:19.379Z,4.63
2019-03-08T06:22:50.221Z,4.90
2019-03-08T06:25:21.074Z,4.53
2019-03-08T06:27:52.882Z,4.80
2019-03-08T06:30:23.834Z,4.37
2019-03-08T06:32:54.935Z,4.73
2019-03-08T06:35:29.743Z,5.27
2019-03-08T06:38:00.557Z,4.50
2019-03-08T06:40:31.320Z,5.00
2019-03-08T06:43:03.272Z,3.87
2019-03-08T06:45:34.353Z,4.10
2019-03-08T06:48:05.147Z,4.50
2019-03-08T06:50:38.924Z,3.93
2019-03-08T06:53:10.401Z,4.17
2019-03-08T06:55:45.597Z,3.77
2019-03-08T06:58:20.178Z,3.80
2019-03-08T07:00:52.715Z,4.57
2019-03-08T07:03:24.878Z,4.70
2019-03-08T07:05:56.374Z,3.90
2019-03-08T07:08:27.084Z,3.83
2019-03-08T07:11:00.109Z,4.10
2019-03-08T07:13:38.478Z,4.03
2019-03-08T07:16:13.137Z,4.20
2019-03-08T07:19:07.378Z,4.13
2019-03-08T07:21:40.204Z,4.63
2019-03-08T07:24:33.756Z,4.23
2019-03-08T07:27:16.903Z,5.17
2019-03-08T07:30:00.045Z,4.67
2019-03-08T07:32:33.862Z,4.80
2019-03-08T07:35:35.726Z,5.73
2019-03-08T07:38:14.130Z,4.77
2019-03-08T07:40:46.745Z,4.60
2019-03-08T07:43:33.249Z,4.60
2019-03-08T07:46:08.665Z,5.00
2019-03-08T07:48:46.385Z,4.83
2019-03-08T07:51:21.616Z,4.60
2019-03-08T07:54:08.059Z,3.97
2019-03-08T07:56:53.693Z,3.80
2019-03-08T07:59:26.316Z,4.23
2019-03-08T08:02:01.470Z,4.00
2019-03-08T08:04:50.335Z,4.30
2019-03-08T08:07:25.758Z,4.60
2019-03-08T08:10:15.476Z,4.53
2019-03-08T08:13:06.182Z,4.07
2019-03-08T08:15:39.276Z,4.63
2019-03-08T08:18:30.354Z,4.43
2019-03-08T08:21:06.327Z,4.30
2019-03-08T08:23:54.788Z,4.87
2019-03-08T08:26:27.945Z,4.43
2019-03-08T08:29:06.808Z,4.73
2019-03-08T08:31:57.088Z,5.10
2019-03-08T08:34:31.586Z,5.13
2019-03-08T08:37:22.282Z,5.20
2019-03-08T08:39:55.159Z,4.63
2019-03-08T08:42:38.537Z,5.13
2019-03-08T08:45:28.864Z,5.13
2019-03-08T08:48:01.288Z,5.13
2019-03-08T08:50:37.118Z,5.03
2019-03-08T08:53:12.237Z,5.03
2019-03-08T08:55:44.535Z,4.60
2019-03-08T08:58:26.143Z,5.37
2019-03-08T09:01:17.861Z,4.53
2019-03-08T09:04:13.652Z,4.90
2019-03-08T09:06:45.888Z,4.90
2019-03-08T09:09:27.147Z,4.00
2019-03-08T09:11:59.600Z,4.80
2019-03-08T09:14:32.049Z,5.63
2019-03-08T09:17:15.319Z,5.03
2019-03-08T09:19:50.720Z,4.97
2019-03-08T09:22:32.915Z,4.27
2019-03-08T09:25:32.500Z,5.10
2019-03-08T09:28:17.202Z,4.10
2019-03-08T09:30:54.190Z,4.80
2019-03-08T09:33:29.442Z,4.50
2019-03-08T09:36:03.930Z,5.97
2019-03-08T09:38:37.686Z,5.83
2019-03-08T09:41:15.899Z,4.33
2019-03-08T09:44:31.732Z,3.13
2019-03-08T09:47:12.017Z,3.30
2019-03-08T09:49:50.080Z,3.83
2019-03-08T09:52:35.111Z,3.97
2019-03-08T09:55:22.650Z,6.13
2019-03-08T09:58:07.568Z,6.67
2019-03-08T10:00:52.043Z,5.40
2019-03-08T10:03:46.506Z,4.30
2019-03-08T10:06:25.368Z,4.07
2019-03-08T10:09:03.881Z,5.33
2019-03-08T10:11:46.619Z,4.70
2019-03-08T10:14:25.425Z,3.80
2019-03-08T10:17:17.110Z,3.60
2019-03-08T10:19:55.613Z,3.87
2019-03-08T10:22:49.711Z,3.57
2019-03-08T10:25:24.936Z,3.63
2019-03-08T10:28:12.580Z,5.30
2019-03-08T10:31:01.476Z,5.10
2019-03-08T10:33:52.250Z,3.57
2019-03-08T10:36:34.297Z,2.27
2019-03-08T10:39:30.215Z,1.93
2019-03-08T10:42:02.437Z,2.23
2019-03-08T10:44:47.610Z,2.03
2019-03-08T10:47:32.332Z,2.43
2019-03-08T10:50:21.001Z,2.43
2019-03-08T10:52:53.463Z,2.00
2019-03-08T10:55:37.382Z,2.10
2019-03-08T10:58:26.580Z,2.20
2019-03-08T11:00:59.021Z,2.50
2019-03-08T11:03:36.558Z,2.10
2019-03-08T11:06:16.922Z,3.57
2019-03-08T11:08:49.213Z,3.00
2019-03-08T11:11:21.439Z,3.33
2019-03-08T11:14:02.809Z,3.23
2019-03-08T11:16:36.227Z,3.80
2019-03-08T11:19:09.128Z,3.70
2019-03-08T11:21:47.728Z,3.00
2019-03-08T11:24:20.219Z,3.70
2019-03-08T11:27:04.536Z,4.23
2019-03-08T11:29:32.829Z,4.70
2019-03-08T11:32:22.503Z,3.70
2019-03-08T11:34:52.413Z,4.00
2019-03-08T11:37:28.146Z,3.70
2019-03-08T11:40:07.110Z,4.30
2019-03-08T11:42:44.876Z,3.60
2019-03-08T11:45:20.111Z,4.00
2019-03-08T11:48:03.686Z,3.70
2019-03-08T11:50:52.244Z,3.70
2019-03-08T11:53:55.793Z,3.50
2019-03-08T11:56:23.775Z,3.83
2019-03-08T11:59:07.355Z,3.47
2019-03-08T12:01:56.380Z,3.53
2019-03-08T12:04:31.701Z,4.13
2019-03-08T12:07:33.953Z,3.13
2019-03-08T12:10:24.937Z,3.10
2019-03-08T12:13:06.251Z,2.80
2019-03-08T12:15:38.723Z,2.40
2019-03-08T12:18:17.268Z,3.17
2019-03-08T12:20:52.768Z,2.33
2019-03-08T12:23:49.324Z,2.43
2019-03-08T12:26:24.767Z,2.30
2019-03-08T12:29:02.911Z,2.83
2019-03-08T12:31:42.028Z,2.60
2019-03-08T12:34:24.425Z,2.80
2019-03-08T12:37:13.631Z,2.40
2019-03-08T12:39:51.211Z,2.23
2019-03-08T12:42:39.702Z,2.93
2019-03-08T12:45:13.242Z,2.03
2019-03-08T12:47:55.716Z,2.17
2019-03-08T12:50:32.340Z,2.10
2019-03-08T12:53:23.049Z,2.40
2019-03-08T12:56:01.782Z,2.67
2019-03-08T12:58:46.973Z,2.80
2019-03-08T13:01:23.042Z,2.03
2019-03-08T13:04:08.095Z,2.07
2019-03-08T13:06:40.521Z,2.20
2019-03-08T13:09:14.851Z,2.90
2019-03-08T13:11:52.080Z,2.10
2019-03-08T13:14:31.386Z,2.20
2019-03-08T13:17:03.302Z,2.83
2019-03-08T13:19:34.207Z,1.93
2019-03-08T13:22:10.665Z,2.40
2019-03-08T13:24:54.851Z,2.03
2019-03-08T13:27:32.910Z,2.40
2019-03-08T13:30:16.060Z,2.40
2019-03-08T13:32:47.861Z,2.20
2019-03-08T13:35:19.983Z,1.93
2019-03-08T13:37:54.077Z,2.10
2019-03-08T13:40:27.272Z,2.40
2019-03-08T13:42:58.150Z,2.17
2019-03-08T13:45:30.987Z,2.53
2019-03-08T13:48:09.490Z,2.73
2019-03-08T13:50:43.660Z,2.63
2019-03-08T13:53:20.335Z,2.60
2019-03-08T13:55:51.117Z,2.57
2019-03-08T13:58:23.948Z,2.40
2019-03-08T14:00:55.183Z,2.43
2019-03-08T14:03:38.161Z,2.80
2019-03-08T14:06:08.855Z,2.70
2019-03-08T14:08:39.389Z,2.50
2019-03-08T14:11:10.238Z,2.50
2019-03-08T14:13:40.947Z,2.70
2019-03-08T14:16:12.693Z,2.57
2019-03-08T14:18:43.389Z,2.70
2019-03-08T14:21:15.033Z,3.00
2019-03-08T14:23:45.713Z,3.00
2019-03-08T14:26:16.469Z,2.83
2019-03-08T14:28:50.867Z,3.60
2019-03-08T14:31:29.384Z,3.67
2019-03-08T14:34:00.849Z,3.50
2019-03-08T14:36:32.913Z,3.60
2019-03-08T14:39:08.009Z,3.97
2019-03-08T14:41:53.093Z,4.37
2019-03-08T14:44:29.521Z,4.83
2019-03-08T14:47:00.343Z,4.00
2019-03-08T14:49:31.069Z,4.83
2019-03-08T14:52:01.737Z,4.13
2019-03-08T14:54:37.730Z,4.13
2019-03-08T14:57:09.235Z,4.17
2019-03-08T14:59:45.511Z,4.07
2019-03-08T15:02:29.760Z,4.10
2019-03-08T15:05:19.189Z,3.80
2019-03-08T15:07:55.613Z,4.37
2019-03-08T15:10:39.122Z,3.87
2019-03-08T15:13:03.128Z,3.00
2019-03-08T15:15:36.897Z,3.53
2019-03-08T15:18:07.665Z,3.63
2019-03-08T15:20:47.373Z,3.23
2019-03-08T15:23:18.266Z,2.93
2019-03-08T15:25:50.543Z,2.80
2019-03-08T15:28:22.454Z,2.73
2019-03-08T15:30:53.240Z,2.70
2019-03-08T15:33:27.101Z,3.17
2019-03-08T15:35:57.964Z,2.80
2019-03-08T15:38:30.570Z,3.30
2019-03-08T15:41:17.253Z,3.37
2019-03-08T15:43:51.192Z,3.50
2019-03-08T15:46:22.362Z,3.77
2019-03-08T15:48:54.465Z,2.77
2019-03-08T15:51:26.957Z,2.70
2019-03-08T15:53:59.148Z,3.27
2019-03-08T15:56:29.927Z,3.10
2019-03-08T15:59:00.976Z,2.80
2019-03-08T16:01:32.003Z,3.03
2019-03-08T16:04:12.073Z,3.10
2019-03-08T16:06:43.843Z,2.90
2019-03-08T16:09:14.405Z,3.53
2019-03-08T16:11:46.203Z,3.23
2019-03-08T16:14:41.618Z,4.37
2019-03-08T16:17:17.999Z,3.13
2019-03-08T16:19:48.793Z,4.37
2019-03-08T16:22:20.611Z,6.63
2019-03-08T16:24:52.329Z,3.00
2019-03-08T16:27:24.793Z,3.23
2019-03-08T16:29:56.861Z,2.90
2019-03-08T16:32:38.418Z,3.20
2019-03-08T16:35:42.129Z,2.43
2019-03-08T16:38:30.748Z,2.43
2019-03-08T16:41:15.228Z,2.80
2019-03-08T16:44:00.298Z,2.80
2019-03-08T16:46:38.500Z,2.80
2019-03-08T16:49:21.881Z,3.47
2019-03-08T16:51:57.000Z,3.80
2019-03-08T16:54:34.809Z,3.07
2019-03-08T16:57:23.107Z,3.07
2019-03-08T17:00:12.106Z,2.60
2019-03-08T17:03:09.774Z,2.80
2019-03-08T17:05:57.523Z,2.27
2019-03-08T17:08:55.461Z,2.83
2019-03-08T17:11:30.760Z,2.60
2019-03-08T17:14:03.134Z,2.20
2019-03-08T17:16:45.027Z,2.10
2019-03-08T17:19:20.061Z,2.30
2019-03-08T17:22:05.835Z,2.30
2019-03-08T17:24:38.192Z,2.17
2019-03-08T17:27:21.010Z,2.10
2019-03-08T17:29:53.417Z,2.47
2019-03-08T17:32:40.810Z,2.20
2019-03-08T17:35:15.441Z,2.60
2019-03-08T17:37:53.793Z,2.30
2019-03-08T17:43:49.010Z,4.50
2019-03-08T17:46:37.474Z,3.23
2019-03-08T17:49:19.818Z,2.80
2019-03-08T17:51:54.859Z,3.00
2019-03-08T17:54:30.120Z,2.73
2019-03-08T17:57:02.525Z,3.10
2019-03-08T17:59:46.960Z,2.73
2019-03-08T18:02:19.363Z,3.43
2019-03-08T18:04:54.742Z,4.40
2019-03-08T18:07:32.936Z,4.60
2019-03-08T18:10:05.543Z,4.97
2019-03-08T18:12:54.067Z,5.10
2019-03-08T18:15:33.114Z,4.60
2019-03-08T18:18:11.694Z,3.83
2019-03-08T18:20:47.522Z,4.50
2019-03-08T18:23:26.019Z,5.00
2019-03-08T18:26:27.717Z,4.67
2019-03-08T18:29:26.738Z,3.70
2019-03-08T18:32:17.361Z,3.97
2019-03-08T18:35:07.004Z,3.70
2019-03-08T18:37:49.728Z,3.47
2019-03-08T18:40:31.392Z,3.60
2019-03-08T18:43:15.983Z,3.40
2019-03-08T18:45:55.802Z,3.70
2019-03-08T18:48:32.074Z,3.63
2019-03-08T18:51:04.459Z,4.60
2019-03-08T18:53:57.046Z,4.63
2019-03-08T18:56:44.393Z,4.93
2019-03-08T18:59:41.134Z,3.60
2019-03-08T19:02:30.666Z,3.33
2019-03-08T19:05:21.614Z,3.63
2019-03-08T19:08:01.013Z,3.53
2019-03-08T19:10:36.869Z,3.57
2019-03-08T19:13:12.161Z,2.77
2019-03-08T19:15:47.655Z,3.00
2019-03-08T19:18:26.196Z,3.40
2019-03-08T19:20:58.713Z,3.47
2019-03-08T19:23:34.167Z,3.73
2019-03-08T19:26:24.776Z,3.70
2019-03-08T19:28:59.433Z,3.40
2019-03-08T19:31:32.105Z,3.00
2019-03-08T19:34:07.168Z,3.87
2019-03-08T19:36:39.979Z,3.87
2019-03-08T19:39:19.487Z,3.57
2019-03-08T19:42:06.894Z,3.20
2019-03-08T19:44:56.229Z,3.20
2019-03-08T19:47:52.623Z,3.10
2019-03-08T19:50:46.749Z,3.43
2019-03-08T19:53:35.598Z,3.70
2019-03-08T19:56:12.042Z,3.43
2019-03-08T19:59:00.008Z,3.50
2019-03-08T20:01:39.745Z,3.70
2019-03-08T20:04:31.250Z,4.00
2019-03-08T20:07:22.572Z,5.17
2019-03-08T20:09:54.964Z,4.90
2019-03-08T20:12:41.333Z,4.57
2019-03-08T20:15:22.797Z,5.27
2019-03-08T20:17:56.252Z,5.10
2019-03-08T20:20:53.875Z,5.40
2019-03-08T20:23:32.711Z,5.23
2019-03-08T20:26:08.876Z,4.87
2019-03-08T20:28:44.799Z,4.37
2019-03-08T20:31:26.773Z,4.70
2019-03-08T20:34:00.269Z,4.47
2019-03-08T20:36:54.509Z,4.53
2019-03-08T20:39:29.333Z,4.23
2019-03-08T20:42:02.336Z,4.40
2019-03-08T20:44:51.088Z,3.87
2019-03-08T20:47:25.523Z,3.60
2019-03-08T20:49:56.400Z,4.47
2019-03-08T20:52:28.728Z,4.17
2019-03-08T20:55:00.172Z,3.83
2019-03-08T20:57:32.864Z,4.03
2019-03-08T21:00:09.272Z,3.97
2019-03-08T21:02:41.420Z,3.90
2019-03-08T21:05:12.482Z,4.27
2019-03-08T21:07:43.339Z,3.70
2019-03-08T21:10:14.900Z,4.43
2019-03-08T21:12:46.826Z,4.17
2019-03-08T21:15:24.945Z,4.13
2019-03-08T21:17:50.574Z,4.67
2019-03-08T21:20:21.636Z,4.07
2019-03-08T21:23:04.667Z,3.73
2019-03-08T21:25:36.808Z,3.87
2019-03-08T21:28:08.093Z,3.60
2019-03-08T21:30:39.345Z,3.60
2019-03-08T21:33:12.718Z,4.00
2019-03-08T21:35:44.782Z,3.33
2019-03-08T21:38:16.845Z,3.83
2019-03-08T21:40:53.449Z,3.00
2019-03-08T21:43:26.367Z,3.70
2019-03-08T21:46:05.167Z,3.90
2019-03-08T21:48:49.353Z,2.90
2019-03-08T21:51:20.488Z,3.57
2019-03-08T21:53:51.485Z,3.30
2019-03-08T21:56:22.342Z,2.87
2019-03-08T21:58:54.417Z,3.00
2019-03-08T22:01:26.870Z,2.80
2019-03-08T22:04:08.986Z,3.07
2019-03-08T22:06:41.200Z,2.87
2019-03-08T22:09:32.901Z,3.20
2019-03-08T22:12:07.255Z,3.03
2019-03-08T22:14:46.225Z,2.83
2019-03-08T22:17:16.945Z,2.83
2019-03-08T22:19:47.875Z,2.67
2019-03-08T22:22:20.031Z,3.30
2019-03-08T22:24:52.019Z,3.00
2019-03-08T22:27:23.706Z,3.03
2019-03-08T22:29:57.490Z,2.77
2019-03-08T22:32:34.250Z,3.03
2019-03-08T22:35:09.414Z,3.20
2019-03-08T22:37:49.070Z,3.00
2019-03-08T22:40:19.859Z,3.03
2019-03-08T22:42:51.564Z,2.90
2019-03-08T22:45:22.364Z,2.57
2019-03-08T22:47:53.142Z,2.63
2019-03-08T22:50:34.124Z,2.87
2019-03-08T22:53:04.877Z,2.77
2019-03-08T22:55:35.616Z,2.70
2019-03-08T22:58:06.352Z,2.73
2019-03-08T23:00:59.198Z,3.00
2019-03-08T23:03:32.001Z,2.50
2019-03-08T23:06:06.412Z,2.60
2019-03-08T23:08:46.434Z,2.30
2019-03-08T23:11:17.176Z,2.43
2019-03-08T23:13:48.067Z,3.10
2019-03-08T23:16:18.837Z,2.27
2019-03-08T23:18:49.569Z,2.67
2019-03-08T23:21:21.250Z,1.70
2019-03-08T23:23:52.977Z,1.97
2019-03-08T23:26:25.639Z,2.20
2019-03-08T23:28:59.196Z,1.80
2019-03-08T23:31:31.581Z,2.40
2019-03-08T23:34:13.325Z,2.13
2019-03-08T23:36:44.107Z,2.20
2019-03-08T23:39:25.956Z,2.10
2019-03-08T23:41:56.604Z,2.23
2019-03-08T23:44:45.753Z,2.30
2019-03-08T23:47:16.329Z,2.57
2019-03-08T23:49:49.070Z,2.30
2019-03-08T23:52:33.098Z,2.27
2019-03-08T23:55:13.199Z,2.20
2019-03-08T23:57:45.840Z,2.50
